createdAt,value
2022-09-16T00:06:01.107Z,2.50
2022-09-16T00:18:01.557Z,2.00
2022-09-16T00:30:01.998Z,2.20
2022-09-16T00:42:02.449Z,2.70
2022-09-16T00:54:02.905Z,2.60
2022-09-16T01:06:03.348Z,2.30
2022-09-16T01:18:03.849Z,2.60
2022-09-16T01:30:04.258Z,2.40
2022-09-16T01:42:04.725Z,3.30
2022-09-16T01:54:05.192Z,2.80
2022-09-16T02:06:05.643Z,3.10
2022-09-16T02:18:06.087Z,3.40
2022-09-16T02:30:06.540Z,3.40
2022-09-16T02:42:07.006Z,3.50
2022-09-16T02:54:07.417Z,3.50
2022-09-16T03:06:07.920Z,3.70
2022-09-16T03:18:08.323Z,4.00
2022-09-16T03:30:08.813Z,4.10
2022-09-16T03:42:09.282Z,4.30
2022-09-16T03:54:09.729Z,4.40
2022-09-16T04:06:10.147Z,4.10
2022-09-16T04:18:10.648Z,4.10
2022-09-16T04:30:11.099Z,4.80
2022-09-16T04:42:11.512Z,4.40
2022-09-16T04:54:11.997Z,4.60
2022-09-16T05:06:14.998Z,5.30
2022-09-16T05:18:13.013Z,6.40
2022-09-16T05:30:13.356Z,4.50
2022-09-16T05:42:13.796Z,5.90
2022-09-16T05:54:14.260Z,5.40
2022-09-16T06:06:14.742Z,4.40
2022-09-16T06:18:15.176Z,4.00
2022-09-16T06:30:15.637Z,4.60
2022-09-16T06:42:16.048Z,3.70
2022-09-16T06:54:16.572Z,4.60
2022-09-16T07:06:17.008Z,3.90
2022-09-16T07:18:17.446Z,3.60
2022-09-16T07:30:17.892Z,3.60
2022-09-16T07:42:18.377Z,4.40
2022-09-16T07:54:18.818Z,4.50
2022-09-16T08:06:19.278Z,4.90
2022-09-16T08:18:19.719Z,4.50
2022-09-16T08:30:20.189Z,4.40
2022-09-16T08:42:23.304Z,4.30
2022-09-16T08:54:21.084Z,3.80
2022-09-16T09:06:21.523Z,3.10
2022-09-16T09:18:21.983Z,2.90
2022-09-16T09:30:22.449Z,3.30
2022-09-16T09:42:22.857Z,3.50
2022-09-16T09:54:23.317Z,4.10
2022-09-16T10:06:23.823Z,3.60
2022-09-16T10:18:24.223Z,3.80
2022-09-16T10:30:24.715Z,3.80
2022-09-16T10:42:25.126Z,4.20
2022-09-16T10:54:25.646Z,4.80
2022-09-16T11:06:26.079Z,4.60
2022-09-16T11:18:26.562Z,5.00
2022-09-16T11:30:26.993Z,4.50
2022-09-16T11:42:27.435Z,4.60
2022-09-16T11:54:27.923Z,3.80
2022-09-16T12:06:28.336Z,3.90
2022-09-16T12:18:28.794Z,4.00
2022-09-16T12:30:29.285Z,3.70
2022-09-16T12:42:29.680Z,5.20
2022-09-16T12:54:40.903Z,4.00
2022-09-16T13:06:30.598Z,3.60
2022-09-16T13:18:31.102Z,5.60
2022-09-16T13:30:31.538Z,4.00
2022-09-16T13:42:32.010Z,3.30
2022-09-16T13:54:37.121Z,3.50
2022-09-16T14:06:32.905Z,4.40
2022-09-16T14:18:33.354Z,4.40
2022-09-16T14:30:33.819Z,4.90
2022-09-16T14:42:34.234Z,4.80
2022-09-16T14:54:34.723Z,5.10
2022-09-16T15:06:35.136Z,4.80
2022-09-16T15:18:35.627Z,4.90
2022-09-16T15:30:36.071Z,6.20
2022-09-16T15:42:36.545Z,6.10
2022-09-16T15:54:36.989Z,5.40
2022-09-16T16:06:37.419Z,5.10
2022-09-16T16:18:37.912Z,5.00
2022-09-16T16:30:38.317Z,5.40
2022-09-16T16:42:38.773Z,5.50
2022-09-16T16:54:39.229Z,5.30
2022-09-16T17:06:39.720Z,5.90
2022-09-16T17:18:40.143Z,5.30
2022-09-16T17:30:40.681Z,5.30
2022-09-16T17:42:41.059Z,5.30
2022-09-16T17:54:41.543Z,6.40
2022-09-16T18:06:42.018Z,6.90
2022-09-16T18:18:42.427Z,6.90
2022-09-16T18:30:42.893Z,8.30
2022-09-16T18:42:43.325Z,8.40
2022-09-16T18:54:43.823Z,7.20
2022-09-16T19:06:44.249Z,12.00
2022-09-16T19:18:44.666Z,9.00
2022-09-16T19:30:45.123Z,8.70
2022-09-16T19:42:45.625Z,9.40
2022-09-16T19:54:46.055Z,7.50
2022-09-16T20:06:46.532Z,7.30
2022-09-16T20:18:46.978Z,8.70
2022-09-16T20:30:47.440Z,8.90
2022-09-16T20:42:47.869Z,9.10
2022-09-16T20:54:48.327Z,8.80
2022-09-16T21:06:48.781Z,8.90
2022-09-16T21:18:49.250Z,9.60
2022-09-16T21:30:49.695Z,8.90
2022-09-16T21:42:50.083Z,10.00
2022-09-16T21:54:50.605Z,10.90
2022-09-16T22:06:51.064Z,10.60
2022-09-16T22:18:51.480Z,11.60
2022-09-16T22:30:51.952Z,10.30
2022-09-16T22:42:52.355Z,10.60
2022-09-16T22:54:52.885Z,11.00
2022-09-16T23:06:53.310Z,9.30
2022-09-16T23:18:53.723Z,10.00
2022-09-16T23:30:54.235Z,8.70
2022-09-16T23:42:54.686Z,7.90
2022-09-16T23:54:55.141Z,6.70
